sensor_id;sensor_type;location;lat;lon;timestamp;P1;durP1;ratioP1;P2;durP2;ratioP2
974;SDS011;6115;49.296;10.602;2023-02-11T00:01:49;36.80;;;19.70;;
974;SDS011;6115;49.296;10.602;2023-02-11T00:06:50;37.00;;;19.20;;
974;SDS011;6115;49.296;10.602;2023-02-11T00:11:50;32.60;;;16.87;;
974;SDS011;6115;49.296;10.602;2023-02-11T00:16:51;35.30;;;18.93;;
974;SDS011;6115;49.296;10.602;2023-02-11T00:21:51;33.27;;;17.47;;
974;SDS011;6115;49.296;10.602;2023-02-11T00:26:52;30.80;;;16.50;;
974;SDS011;6115;49.296;10.602;2023-02-11T00:31:52;33.73;;;19.17;;
974;SDS011;6115;49.296;10.602;2023-02-11T00:36:53;29.00;;;17.07;;
974;SDS011;6115;49.296;10.602;2023-02-11T00:41:54;34.20;;;20.30;;
974;SDS011;6115;49.296;10.602;2023-02-11T00:46:54;36.27;;;17.47;;
974;SDS011;6115;49.296;10.602;2023-02-11T00:51:55;37.13;;;18.07;;
974;SDS011;6115;49.296;10.602;2023-02-11T00:56:55;28.07;;;15.00;;
974;SDS011;6115;49.296;10.602;2023-02-11T01:01:56;32.43;;;17.27;;
974;SDS011;6115;49.296;10.602;2023-02-11T01:06:56;33.30;;;15.87;;
974;SDS011;6115;49.296;10.602;2023-02-11T01:11:57;31.90;;;16.43;;
974;SDS011;6115;49.296;10.602;2023-02-11T01:16:57;36.27;;;18.10;;
974;SDS011;6115;49.296;10.602;2023-02-11T01:21:58;37.40;;;19.40;;
974;SDS011;6115;49.296;10.602;2023-02-11T01:26:59;36.00;;;15.90;;
974;SDS011;6115;49.296;10.602;2023-02-11T01:31:59;32.37;;;18.60;;
974;SDS011;6115;49.296;10.602;2023-02-11T01:37:00;35.80;;;18.47;;
974;SDS011;6115;49.296;10.602;2023-02-11T01:42:01;34.13;;;18.40;;
974;SDS011;6115;49.296;10.602;2023-02-11T01:47:01;32.77;;;17.33;;
974;SDS011;6115;49.296;10.602;2023-02-11T01:57:19;31.90;;;18.50;;
974;SDS011;6115;49.296;10.602;2023-02-11T02:02:23;38.73;;;18.33;;
974;SDS011;6115;49.296;10.602;2023-02-11T02:07:35;30.90;;;16.90;;
974;SDS011;6115;49.296;10.602;2023-02-11T02:12:43;29.77;;;16.70;;
974;SDS011;6115;49.296;10.602;2023-02-11T02:18:28;34.60;;;18.50;;
974;SDS011;6115;49.296;10.602;2023-02-11T02:34:05;31.83;;;19.13;;
974;SDS011;6115;49.296;10.602;2023-02-11T02:39:25;39.17;;;18.30;;
974;SDS011;6115;49.296;10.602;2023-02-11T02:44:30;30.97;;;16.63;;
974;SDS011;6115;49.296;10.602;2023-02-11T02:49:31;34.17;;;16.40;;
974;SDS011;6115;49.296;10.602;2023-02-11T02:54:34;31.57;;;17.93;;
974;SDS011;6115;49.296;10.602;2023-02-11T03:05:11;29.80;;;17.00;;
974;SDS011;6115;49.296;10.602;2023-02-11T03:10:19;26.30;;;16.37;;
974;SDS011;6115;49.296;10.602;2023-02-11T03:15:33;25.50;;;14.77;;
974;SDS011;6115;49.296;10.602;2023-02-11T03:20:40;35.83;;;18.77;;
974;SDS011;6115;49.296;10.602;2023-02-11T03:25:44;34.20;;;18.80;;
974;SDS011;6115;49.296;10.602;2023-02-11T03:31:15;36.33;;;19.93;;
974;SDS011;6115;49.296;10.602;2023-02-11T03:36:23;33.17;;;18.37;;
974;SDS011;6115;49.296;10.602;2023-02-11T03:41:46;33.03;;;18.67;;
974;SDS011;6115;49.296;10.602;2023-02-11T03:46:49;34.07;;;16.97;;
974;SDS011;6115;49.296;10.602;2023-02-11T03:51:52;35.77;;;17.40;;
974;SDS011;6115;49.296;10.602;2023-02-11T03:56:55;33.00;;;17.93;;
974;SDS011;6115;49.296;10.602;2023-02-11T04:01:58;31.17;;;17.40;;
974;SDS011;6115;49.296;10.602;2023-02-11T04:06:58;28.00;;;17.00;;
974;SDS011;6115;49.296;10.602;2023-02-11T04:11:59;28.17;;;16.80;;
974;SDS011;6115;49.296;10.602;2023-02-11T04:16:59;30.37;;;15.63;;
974;SDS011;6115;49.296;10.602;2023-02-11T04:22:00;31.17;;;16.97;;
974;SDS011;6115;49.296;10.602;2023-02-11T04:27:01;29.30;;;17.10;;
974;SDS011;6115;49.296;10.602;2023-02-11T04:32:02;31.13;;;15.07;;
974;SDS011;6115;49.296;10.602;2023-02-11T04:37:03;26.87;;;15.10;;
974;SDS011;6115;49.296;10.602;2023-02-11T04:42:03;30.13;;;16.83;;
974;SDS011;6115;49.296;10.602;2023-02-11T04:47:04;28.47;;;15.90;;
974;SDS011;6115;49.296;10.602;2023-02-11T04:52:05;28.00;;;15.83;;
974;SDS011;6115;49.296;10.602;2023-02-11T04:57:05;26.00;;;16.13;;
974;SDS011;6115;49.296;10.602;2023-02-11T05:02:06;25.40;;;15.00;;
974;SDS011;6115;49.296;10.602;2023-02-11T05:07:06;23.27;;;14.47;;
974;SDS011;6115;49.296;10.602;2023-02-11T05:12:07;25.13;;;14.60;;
974;SDS011;6115;49.296;10.602;2023-02-11T05:17:08;23.10;;;14.50;;
974;SDS011;6115;49.296;10.602;2023-02-11T05:22:08;26.13;;;14.83;;
974;SDS011;6115;49.296;10.602;2023-02-11T05:27:09;21.27;;;13.50;;
974;SDS011;6115;49.296;10.602;2023-02-11T05:32:09;25.63;;;14.60;;
974;SDS011;6115;49.296;10.602;2023-02-11T05:37:11;22.60;;;13.80;;
974;SDS011;6115;49.296;10.602;2023-02-11T05:42:12;21.30;;;13.73;;
974;SDS011;6115;49.296;10.602;2023-02-11T05:47:12;21.83;;;13.40;;
974;SDS011;6115;49.296;10.602;2023-02-11T05:52:13;21.27;;;12.40;;
974;SDS011;6115;49.296;10.602;2023-02-11T05:57:14;26.73;;;14.40;;
974;SDS011;6115;49.296;10.602;2023-02-11T06:02:15;23.83;;;12.80;;
974;SDS011;6115;49.296;10.602;2023-02-11T06:07:16;20.80;;;12.90;;
974;SDS011;6115;49.296;10.602;2023-02-11T06:12:18;22.57;;;14.00;;
974;SDS011;6115;49.296;10.602;2023-02-11T06:17:19;19.77;;;12.57;;
974;SDS011;6115;49.296;10.602;2023-02-11T06:22:19;20.90;;;12.67;;
974;SDS011;6115;49.296;10.602;2023-02-11T06:27:20;22.30;;;12.63;;
974;SDS011;6115;49.296;10.602;2023-02-11T06:32:20;26.43;;;13.23;;
974;SDS011;6115;49.296;10.602;2023-02-11T06:37:21;21.97;;;12.33;;
974;SDS011;6115;49.296;10.602;2023-02-11T06:42:23;33.80;;;17.20;;
974;SDS011;6115;49.296;10.602;2023-02-11T06:47:23;22.73;;;13.43;;
974;SDS011;6115;49.296;10.602;2023-02-11T06:52:24;19.73;;;11.63;;
974;SDS011;6115;49.296;10.602;2023-02-11T06:57:24;21.50;;;12.30;;
974;SDS011;6115;49.296;10.602;2023-02-11T07:02:25;19.27;;;11.60;;
974;SDS011;6115;49.296;10.602;2023-02-11T07:07:26;39.67;;;21.97;;
974;SDS011;6115;49.296;10.602;2023-02-11T07:12:26;86.93;;;39.83;;
974;SDS011;6115;49.296;10.602;2023-02-11T07:17:27;56.17;;;28.00;;
974;SDS011;6115;49.296;10.602;2023-02-11T07:22:27;17.70;;;12.33;;
974;SDS011;6115;49.296;10.602;2023-02-11T07:27:28;18.27;;;10.63;;
974;SDS011;6115;49.296;10.602;2023-02-11T07:32:29;20.33;;;10.97;;
974;SDS011;6115;49.296;10.602;2023-02-11T07:37:29;18.23;;;10.07;;
974;SDS011;6115;49.296;10.602;2023-02-11T07:42:33;17.03;;;9.77;;
974;SDS011;6115;49.296;10.602;2023-02-11T07:47:34;20.27;;;11.77;;
974;SDS011;6115;49.296;10.602;2023-02-11T07:52:35;17.67;;;10.63;;
974;SDS011;6115;49.296;10.602;2023-02-11T07:57:35;18.77;;;10.70;;
974;SDS011;6115;49.296;10.602;2023-02-11T08:02:36;18.00;;;10.60;;
974;SDS011;6115;49.296;10.602;2023-02-11T08:07:37;12.80;;;7.53;;
974;SDS011;6115;49.296;10.602;2023-02-11T08:12:37;13.53;;;6.23;;
974;SDS011;6115;49.296;10.602;2023-02-11T08:17:38;11.17;;;7.17;;
974;SDS011;6115;49.296;10.602;2023-02-11T08:22:38;14.50;;;9.17;;
974;SDS011;6115;49.296;10.602;2023-02-11T08:27:39;16.73;;;9.20;;
974;SDS011;6115;49.296;10.602;2023-02-11T08:32:39;13.90;;;9.17;;
974;SDS011;6115;49.296;10.602;2023-02-11T08:37:40;13.20;;;7.90;;
974;SDS011;6115;49.296;10.602;2023-02-11T08:42:40;11.30;;;7.77;;
974;SDS011;6115;49.296;10.602;2023-02-11T08:47:41;13.33;;;8.70;;
974;SDS011;6115;49.296;10.602;2023-02-11T08:52:42;14.10;;;8.73;;
974;SDS011;6115;49.296;10.602;2023-02-11T08:57:43;13.03;;;8.53;;
974;SDS011;6115;49.296;10.602;2023-02-11T09:02:44;18.83;;;8.63;;
974;SDS011;6115;49.296;10.602;2023-02-11T09:07:45;15.60;;;8.70;;
974;SDS011;6115;49.296;10.602;2023-02-11T09:12:45;13.83;;;8.00;;
974;SDS011;6115;49.296;10.602;2023-02-11T09:17:46;16.10;;;9.60;;
974;SDS011;6115;49.296;10.602;2023-02-11T09:22:46;14.20;;;8.60;;
974;SDS011;6115;49.296;10.602;2023-02-11T09:27:47;11.20;;;7.80;;
974;SDS011;6115;49.296;10.602;2023-02-11T09:32:48;16.30;;;9.90;;
974;SDS011;6115;49.296;10.602;2023-02-11T09:37:49;17.03;;;9.83;;
974;SDS011;6115;49.296;10.602;2023-02-11T09:42:52;15.13;;;9.07;;
974;SDS011;6115;49.296;10.602;2023-02-11T09:53:13;13.63;;;9.27;;
974;SDS011;6115;49.296;10.602;2023-02-11T09:58:30;13.80;;;9.17;;
974;SDS011;6115;49.296;10.602;2023-02-11T10:24:53;13.10;;;8.87;;
974;SDS011;6115;49.296;10.602;2023-02-11T10:30:01;11.50;;;9.23;;
974;SDS011;6115;49.296;10.602;2023-02-11T10:35:20;11.40;;;8.20;;
974;SDS011;6115;49.296;10.602;2023-02-11T10:40:23;15.07;;;9.40;;
974;SDS011;6115;49.296;10.602;2023-02-11T10:45:31;12.13;;;7.90;;
974;SDS011;6115;49.296;10.602;2023-02-11T10:50:37;15.80;;;9.77;;
974;SDS011;6115;49.296;10.602;2023-02-11T10:55:38;12.70;;;8.77;;
974;SDS011;6115;49.296;10.602;2023-02-11T11:00:50;12.17;;;8.30;;
974;SDS011;6115;49.296;10.602;2023-02-11T11:06:03;11.23;;;8.33;;
974;SDS011;6115;49.296;10.602;2023-02-11T11:11:08;15.20;;;9.23;;
974;SDS011;6115;49.296;10.602;2023-02-11T11:21:13;13.57;;;9.87;;
974;SDS011;6115;49.296;10.602;2023-02-11T11:26:23;12.33;;;9.37;;
974;SDS011;6115;49.296;10.602;2023-02-11T11:36:35;14.20;;;9.10;;
974;SDS011;6115;49.296;10.602;2023-02-11T11:41:39;12.83;;;8.40;;
974;SDS011;6115;49.296;10.602;2023-02-11T11:47:07;20.23;;;9.80;;
974;SDS011;6115;49.296;10.602;2023-02-11T11:57:31;16.37;;;10.03;;
974;SDS011;6115;49.296;10.602;2023-02-11T12:08:36;13.33;;;9.03;;
974;SDS011;6115;49.296;10.602;2023-02-11T12:14:00;17.93;;;11.03;;
974;SDS011;6115;49.296;10.602;2023-02-11T12:19:10;16.63;;;8.97;;
974;SDS011;6115;49.296;10.602;2023-02-11T12:30:17;15.30;;;9.70;;
974;SDS011;6115;49.296;10.602;2023-02-11T12:35:40;11.27;;;7.47;;
974;SDS011;6115;49.296;10.602;2023-02-11T12:46:49;17.33;;;10.57;;
974;SDS011;6115;49.296;10.602;2023-02-11T12:52:13;17.50;;;10.97;;
974;SDS011;6115;49.296;10.602;2023-02-11T12:57:37;21.90;;;11.50;;
974;SDS011;6115;49.296;10.602;2023-02-11T13:03:00;17.20;;;11.00;;
974;SDS011;6115;49.296;10.602;2023-02-11T13:08:30;18.20;;;10.80;;
974;SDS011;6115;49.296;10.602;2023-02-11T13:13:38;16.23;;;10.97;;
974;SDS011;6115;49.296;10.602;2023-02-11T13:18:56;17.30;;;11.50;;
974;SDS011;6115;49.296;10.602;2023-02-11T13:24:25;18.93;;;12.33;;
974;SDS011;6115;49.296;10.602;2023-02-11T13:35:24;19.87;;;12.80;;
974;SDS011;6115;49.296;10.602;2023-02-11T13:40:37;16.90;;;10.90;;
974;SDS011;6115;49.296;10.602;2023-02-11T13:45:42;17.60;;;11.00;;
974;SDS011;6115;49.296;10.602;2023-02-11T13:50:46;21.17;;;12.70;;
974;SDS011;6115;49.296;10.602;2023-02-11T13:55:49;19.63;;;11.37;;
974;SDS011;6115;49.296;10.602;2023-02-11T14:00:51;20.00;;;11.70;;
974;SDS011;6115;49.296;10.602;2023-02-11T14:06:09;19.87;;;13.07;;
974;SDS011;6115;49.296;10.602;2023-02-11T14:27:19;24.57;;;15.07;;
974;SDS011;6115;49.296;10.602;2023-02-11T14:42:47;17.07;;;9.73;;
974;SDS011;6115;49.296;10.602;2023-02-11T14:47:54;26.40;;;14.67;;
974;SDS011;6115;49.296;10.602;2023-02-11T14:53:02;20.83;;;13.17;;
974;SDS011;6115;49.296;10.602;2023-02-11T14:58:12;23.07;;;13.67;;
974;SDS011;6115;49.296;10.602;2023-02-11T15:03:35;22.03;;;14.50;;
974;SDS011;6115;49.296;10.602;2023-02-11T15:08:44;23.50;;;13.20;;
974;SDS011;6115;49.296;10.602;2023-02-11T15:13:51;22.50;;;13.93;;
974;SDS011;6115;49.296;10.602;2023-02-11T15:18:54;22.17;;;13.97;;
974;SDS011;6115;49.296;10.602;2023-02-11T15:24:00;22.90;;;14.07;;
974;SDS011;6115;49.296;10.602;2023-02-11T15:29:13;20.93;;;12.73;;
974;SDS011;6115;49.296;10.602;2023-02-11T15:34:17;22.83;;;14.07;;
974;SDS011;6115;49.296;10.602;2023-02-11T15:39:33;23.40;;;14.80;;
974;SDS011;6115;49.296;10.602;2023-02-11T15:44:37;20.93;;;13.80;;
974;SDS011;6115;49.296;10.602;2023-02-11T15:49:38;22.60;;;13.87;;
974;SDS011;6115;49.296;10.602;2023-02-11T15:54:44;18.70;;;14.10;;
974;SDS011;6115;49.296;10.602;2023-02-11T15:59:47;23.83;;;13.97;;
974;SDS011;6115;49.296;10.602;2023-02-11T16:04:55;21.67;;;13.50;;
974;SDS011;6115;49.296;10.602;2023-02-11T16:09:57;28.23;;;13.93;;
974;SDS011;6115;49.296;10.602;2023-02-11T16:14:58;23.57;;;14.67;;
974;SDS011;6115;49.296;10.602;2023-02-11T16:20:02;26.60;;;15.57;;
974;SDS011;6115;49.296;10.602;2023-02-11T16:25:03;26.50;;;15.20;;
974;SDS011;6115;49.296;10.602;2023-02-11T16:30:05;23.27;;;15.10;;
974;SDS011;6115;49.296;10.602;2023-02-11T16:35:17;26.13;;;16.80;;
974;SDS011;6115;49.296;10.602;2023-02-11T16:40:18;26.13;;;15.53;;
974;SDS011;6115;49.296;10.602;2023-02-11T16:45:19;23.20;;;15.33;;
974;SDS011;6115;49.296;10.602;2023-02-11T16:50:20;29.00;;;16.90;;
974;SDS011;6115;49.296;10.602;2023-02-11T16:55:23;23.77;;;15.70;;
974;SDS011;6115;49.296;10.602;2023-02-11T17:00:24;27.70;;;16.43;;
974;SDS011;6115;49.296;10.602;2023-02-11T17:05:24;26.30;;;16.13;;
974;SDS011;6115;49.296;10.602;2023-02-11T17:10:25;26.13;;;15.87;;
974;SDS011;6115;49.296;10.602;2023-02-11T17:15:26;29.57;;;18.37;;
974;SDS011;6115;49.296;10.602;2023-02-11T17:20:27;28.07;;;19.13;;
974;SDS011;6115;49.296;10.602;2023-02-11T17:25:27;29.87;;;17.80;;
974;SDS011;6115;49.296;10.602;2023-02-11T17:30:28;29.50;;;16.53;;
974;SDS011;6115;49.296;10.602;2023-02-11T17:35:28;24.00;;;16.30;;
974;SDS011;6115;49.296;10.602;2023-02-11T17:40:29;27.10;;;16.57;;
974;SDS011;6115;49.296;10.602;2023-02-11T17:45:29;26.23;;;17.00;;
974;SDS011;6115;49.296;10.602;2023-02-11T17:50:30;27.20;;;16.80;;
974;SDS011;6115;49.296;10.602;2023-02-11T17:55:34;28.10;;;17.77;;
974;SDS011;6115;49.296;10.602;2023-02-11T18:00:34;33.20;;;20.30;;
974;SDS011;6115;49.296;10.602;2023-02-11T18:05:35;43.63;;;23.17;;
974;SDS011;6115;49.296;10.602;2023-02-11T18:10:36;40.50;;;21.70;;
974;SDS011;6115;49.296;10.602;2023-02-11T18:15:40;29.87;;;18.20;;
974;SDS011;6115;49.296;10.602;2023-02-11T18:20:40;36.93;;;20.97;;
974;SDS011;6115;49.296;10.602;2023-02-11T18:25:45;29.87;;;19.30;;
974;SDS011;6115;49.296;10.602;2023-02-11T18:30:48;25.37;;;18.00;;
974;SDS011;6115;49.296;10.602;2023-02-11T18:35:56;30.40;;;18.67;;
974;SDS011;6115;49.296;10.602;2023-02-11T18:40:56;32.23;;;19.60;;
974;SDS011;6115;49.296;10.602;2023-02-11T18:45:57;30.77;;;20.63;;
974;SDS011;6115;49.296;10.602;2023-02-11T18:50:57;32.53;;;18.57;;
974;SDS011;6115;49.296;10.602;2023-02-11T18:55:58;27.20;;;18.30;;
974;SDS011;6115;49.296;10.602;2023-02-11T19:01:00;35.60;;;22.97;;
974;SDS011;6115;49.296;10.602;2023-02-11T19:06:00;34.70;;;19.63;;
974;SDS011;6115;49.296;10.602;2023-02-11T19:11:02;35.73;;;20.60;;
974;SDS011;6115;49.296;10.602;2023-02-11T19:16:04;28.20;;;18.53;;
974;SDS011;6115;49.296;10.602;2023-02-11T19:21:07;29.13;;;20.10;;
974;SDS011;6115;49.296;10.602;2023-02-11T19:26:09;29.10;;;19.30;;
974;SDS011;6115;49.296;10.602;2023-02-11T19:31:09;37.80;;;21.37;;
974;SDS011;6115;49.296;10.602;2023-02-11T19:36:10;31.73;;;20.13;;
974;SDS011;6115;49.296;10.602;2023-02-11T19:41:15;32.97;;;20.37;;
974;SDS011;6115;49.296;10.602;2023-02-11T19:46:21;33.57;;;20.10;;
974;SDS011;6115;49.296;10.602;2023-02-11T19:51:23;29.23;;;18.67;;
974;SDS011;6115;49.296;10.602;2023-02-11T19:56:24;32.87;;;18.93;;
974;SDS011;6115;49.296;10.602;2023-02-11T20:01:27;29.70;;;19.20;;
974;SDS011;6115;49.296;10.602;2023-02-11T20:06:29;35.00;;;20.67;;
974;SDS011;6115;49.296;10.602;2023-02-11T20:11:31;32.70;;;19.87;;
974;SDS011;6115;49.296;10.602;2023-02-11T20:16:33;52.40;;;30.20;;
974;SDS011;6115;49.296;10.602;2023-02-11T20:21:33;43.83;;;26.10;;
974;SDS011;6115;49.296;10.602;2023-02-11T20:26:34;41.00;;;24.20;;
974;SDS011;6115;49.296;10.602;2023-02-11T20:31:36;38.23;;;23.60;;
974;SDS011;6115;49.296;10.602;2023-02-11T20:36:36;41.70;;;25.70;;
974;SDS011;6115;49.296;10.602;2023-02-11T20:41:39;39.77;;;22.60;;
974;SDS011;6115;49.296;10.602;2023-02-11T20:46:40;37.33;;;21.60;;
974;SDS011;6115;49.296;10.602;2023-02-11T20:51:45;32.37;;;18.90;;
974;SDS011;6115;49.296;10.602;2023-02-11T20:56:47;29.03;;;18.67;;
974;SDS011;6115;49.296;10.602;2023-02-11T21:01:50;36.43;;;21.70;;
974;SDS011;6115;49.296;10.602;2023-02-11T21:06:58;34.97;;;19.93;;
974;SDS011;6115;49.296;10.602;2023-02-11T21:12:00;38.53;;;22.50;;
974;SDS011;6115;49.296;10.602;2023-02-11T21:17:01;32.73;;;20.87;;
974;SDS011;6115;49.296;10.602;2023-02-11T21:22:02;29.20;;;22.10;;
974;SDS011;6115;49.296;10.602;2023-02-11T21:27:02;32.13;;;20.13;;
974;SDS011;6115;49.296;10.602;2023-02-11T21:32:03;33.07;;;20.20;;
974;SDS011;6115;49.296;10.602;2023-02-11T21:37:04;30.93;;;19.03;;
974;SDS011;6115;49.296;10.602;2023-02-11T21:42:04;29.00;;;18.20;;
974;SDS011;6115;49.296;10.602;2023-02-11T21:47:05;29.67;;;18.40;;
974;SDS011;6115;49.296;10.602;2023-02-11T21:52:05;40.20;;;19.40;;
974;SDS011;6115;49.296;10.602;2023-02-11T21:57:06;29.90;;;18.93;;
974;SDS011;6115;49.296;10.602;2023-02-11T22:02:07;33.60;;;20.33;;
974;SDS011;6115;49.296;10.602;2023-02-11T22:07:11;37.27;;;18.93;;
974;SDS011;6115;49.296;10.602;2023-02-11T22:12:11;33.43;;;22.27;;
974;SDS011;6115;49.296;10.602;2023-02-11T22:17:12;33.00;;;20.50;;
974;SDS011;6115;49.296;10.602;2023-02-11T22:22:13;33.70;;;19.03;;
974;SDS011;6115;49.296;10.602;2023-02-11T22:27:17;29.97;;;16.37;;
974;SDS011;6115;49.296;10.602;2023-02-11T22:32:17;30.57;;;18.07;;
974;SDS011;6115;49.296;10.602;2023-02-11T22:37:19;28.27;;;17.70;;
974;SDS011;6115;49.296;10.602;2023-02-11T22:42:19;32.80;;;17.20;;
974;SDS011;6115;49.296;10.602;2023-02-11T22:47:20;26.17;;;17.67;;
974;SDS011;6115;49.296;10.602;2023-02-11T22:52:21;30.53;;;17.10;;
974;SDS011;6115;49.296;10.602;2023-02-11T22:57:22;27.17;;;16.50;;
974;SDS011;6115;49.296;10.602;2023-02-11T23:02:23;25.10;;;16.23;;
974;SDS011;6115;49.296;10.602;2023-02-11T23:07:23;89.57;;;34.40;;
974;SDS011;6115;49.296;10.602;2023-02-11T23:12:24;64.97;;;24.20;;
974;SDS011;6115;49.296;10.602;2023-02-11T23:17:25;38.77;;;19.50;;
974;SDS011;6115;49.296;10.602;2023-02-11T23:22:27;34.20;;;20.10;;
974;SDS011;6115;49.296;10.602;2023-02-11T23:27:28;34.13;;;19.10;;
974;SDS011;6115;49.296;10.602;2023-02-11T23:32:29;28.80;;;17.90;;
974;SDS011;6115;49.296;10.602;2023-02-11T23:37:29;30.07;;;18.80;;
974;SDS011;6115;49.296;10.602;2023-02-11T23:42:30;32.63;;;17.30;;
974;SDS011;6115;49.296;10.602;2023-02-11T23:47:30;31.33;;;18.43;;
974;SDS011;6115;49.296;10.602;2023-02-11T23:52:32;27.40;;;17.33;;
974;SDS011;6115;49.296;10.602;2023-02-11T23:57:33;32.43;;;19.60;;
